Upstream stations:
Downstream station:
SHEF ID: IOLK1 NEOSHO RIVER NEAR IOLA
STATION TYPE:
Regulating: Stage = 15.00, Flow = 18228
PRECIP STAGE RIV-FLOW BAT-LOAD
in ft cfs volt
Ccp-Rev Ccp-Rev Ccp-Rev Ccp-Rev
(US/Central)
03/29 00:00 0.00 8.16 2059 12.63
03/29 01:00 0.00 8.09 1903 12.61
03/29 02:00 0.00 8.02 1752 12.59
03/29 03:00 0.00 7.94 1587 12.56
03/29 04:00 0.00 7.88 1468 12.54
03/29 05:00 0.00 7.81 1335 12.53
03/29 06:00 0.00 7.75 1226 12.51
03/29 07:00 0.00 7.69 1121 12.51
03/29 08:00 0.00 7.63 1020 12.51
03/29 09:00 0.00 7.59 956 12.73
03/29 10:00 0.00 7.54 878 13.32
03/29 11:00 0.00 7.50 817 13.62
03/29 12:00 0.00 7.46 759 13.57
03/29 13:00 0.00 7.41 689 13.13
03/29 14:00 0.00 7.39 662 13.11
03/29 15:00 0.00 7.36 623 13.07
03/29 16:00 0.00 7.32 571 13.03
03/29 17:00 0.00 7.29 534 13.03
03/29 18:00 0.00 7.27 510 13.01
03/29 19:00 0.00 7.25 487 12.99
03/29 20:00 0.00 7.23 464 12.81
03/29 21:00 0.00 7.22 453 12.76
03/29 22:00 0.00 7.26 499 12.72
03/29 23:00 0.02 7.24 475 12.70